Time;durP1;ratioP1;P1;durP2;ratioP2;P2;SDS_P1;SDS_P2;PMS_P1;PMS_P2;Temp;Humidity;BMP_temperature;BMP_pressure;BME280_temperature;BME280_humidity;BME280_pressure;Samples;Min_cycle;Max_cycle;Signal;HPM_P1;HPM_P2
2023/09/17 00:01:14;;;;;;;4.57;2.85;;;;;;;17.46;nan;99954.63;7396760;19;20782;-57
2023/09/17 00:03:40;;;;;;;2.85;1.60;;;;;;;17.14;nan;99947.91;7400927;19;20011;-57
2023/09/17 00:06:08;;;;;;;15.65;1.95;;;;;;;17.43;nan;99953.63;7398772;19;20074;-57
2023/09/17 00:08:35;;;;;;;1.42;1.02;;;;;;;16.97;nan;99961.28;7395466;19;20070;-57
2023/09/17 00:11:02;;;;;;;3.17;1.33;;;;;;;17.83;nan;99952.13;7396841;19;20007;-57
2023/09/17 00:13:29;;;;;;;5.00;1.70;;;;;;;19.39;nan;99937.19;7396294;19;20031;-57
2023/09/17 00:15:55;;;;;;;4.95;1.90;;;;;;;19.65;nan;99929.63;7396687;19;20026;-57
2023/09/17 00:18:22;;;;;;;2.72;1.23;;;;;;;19.51;nan;99930.84;7394606;19;20021;-57
2023/09/17 00:20:48;;;;;;;7.65;1.98;;;;;;;19.70;nan;99930.06;7395869;19;20010;-57
2023/09/17 00:23:14;;;;;;;11.70;1.45;;;;;;;19.16;nan;99938.78;7395471;19;20020;-57
2023/09/17 00:25:40;;;;;;;5.68;1.40;;;;;;;19.14;nan;99925.19;7398143;19;20377;-57
2023/09/17 00:28:06;;;;;;;9.77;2.72;;;;;;;19.05;nan;99928.38;7395913;19;20033;-57
2023/09/17 00:30:32;;;;;;;3.78;1.92;;;;;;;18.97;nan;99921.81;7395200;19;20035;-56
2023/09/17 00:32:59;;;;;;;4.03;2.33;;;;;;;19.21;nan;99913.28;7397030;19;20010;-57
2023/09/17 00:35:25;;;;;;;4.68;1.48;;;;;;;18.81;nan;99911.50;7396992;19;20498;-57
2023/09/17 00:37:51;;;;;;;1.42;1.33;;;;;;;28.67;nan;99894.19;7395134;19;20049;-57
2023/09/17 00:40:20;;;;;;;6.72;2.53;;;;;;;22.96;nan;99897.41;7395614;19;20459;-58
2023/09/17 00:42:47;;;;;;;4.90;1.70;;;;;;;18.28;nan;99901.03;7395627;19;20014;-57
2023/09/17 00:45:13;;;;;;;3.42;2.55;;;;;;;19.63;nan;99892.66;7396134;19;20338;-58
2023/09/17 00:47:39;;;;;;;11.00;2.15;;;;;;;19.29;nan;99882.38;7395420;19;20054;-57
2023/09/17 00:50:08;;;;;;;5.65;2.45;;;;;;;19.03;nan;99891.47;7396286;19;20011;-57
2023/09/17 00:52:34;;;;;;;4.10;1.33;;;;;;;17.78;nan;99885.31;7394036;19;20359;-57
2023/09/17 00:55:01;;;;;;;3.28;1.67;;;;;;;16.96;nan;99892.19;7396082;19;20031;-57
2023/09/17 00:57:27;;;;;;;7.47;2.22;;;;;;;16.74;nan;99886.69;7393187;19;20094;-57
2023/09/17 00:59:54;;;;;;;6.85;2.08;;;;;;;16.65;nan;99891.31;7394484;19;20014;-57
2023/09/17 01:02:24;;;;;;;5.82;2.28;;;;;;;17.35;nan;99889.94;7395939;19;20049;-57
2023/09/17 01:04:52;;;;;;;2.30;1.35;;;;;;;17.90;nan;99878.31;7394691;19;20022;-57
2023/09/17 01:07:19;;;;;;;6.13;2.38;;;;;;;18.27;nan;99871.28;7393559;19;20027;-57
2023/09/17 01:09:46;;;;;;;4.60;2.20;;;;;;;16.93;nan;99882.00;7394307;19;20011;-57
2023/09/17 01:12:12;;;;;;;5.28;1.73;;;;;;;16.84;nan;99885.09;7394055;19;20500;-57
2023/09/17 01:14:38;;;;;;;4.05;1.77;;;;;;;19.25;nan;99876.28;7394130;19;20014;-57
2023/09/17 01:17:08;;;;;;;5.53;2.55;;;;;;;19.55;nan;99868.41;7397092;19;20049;-57
2023/09/17 01:19:35;;;;;;;5.40;1.52;;;;;;;17.09;nan;99883.94;7394337;19;20006;-57
2023/09/17 01:22:12;;;;;;;6.57;2.28;;;;;;;17.42;nan;99872.50;7394268;19;20007;-57
2023/09/17 01:24:47;;;;;;;3.40;1.33;;;;;;;19.96;nan;99867.97;7392516;19;20036;-57
2023/09/17 01:27:15;;;;;;;13.55;3.08;;;;;;;18.87;nan;99869.84;7394301;19;20074;-56
2023/09/17 01:29:43;;;;;;;3.67;2.05;;;;;;;19.34;nan;99865.38;7394314;19;20014;-56
2023/09/17 01:32:12;;;;;;;15.10;2.05;;;;;;;17.00;nan;99873.75;7395373;19;20029;-57
2023/09/17 01:34:45;;;;;;;5.93;2.10;;;;;;;16.70;nan;99877.75;7392761;19;20340;-57
2023/09/17 01:37:23;;;;;;;5.68;2.15;;;;;;;17.04;nan;99867.88;7393242;19;20018;-57
2023/09/17 01:40:03;;;;;;;4.18;1.60;;;;;;;16.68;nan;99867.78;7394069;19;20466;-57
2023/09/17 01:42:30;;;;;;;4.50;2.28;;;;;;;16.68;nan;99862.16;7393767;19;20017;-57
2023/09/17 01:44:58;;;;;;;5.75;1.55;;;;;;;17.48;nan;99861.94;7393199;19;20010;-57
2023/09/17 01:47:27;;;;;;;4.90;2.47;;;;;;;17.35;nan;99867.41;7393862;19;20018;-57
2023/09/17 01:49:58;;;;;;;11.02;1.88;;;;;;;17.50;nan;99862.22;7398153;19;20031;-57
2023/09/17 01:52:32;;;;;;;6.10;2.67;;;;;;;20.87;nan;99858.81;7392297;19;20006;-57
2023/09/17 01:55:00;;;;;;;15.43;2.67;;;;;;;18.04;nan;99854.59;7394182;19;20006;-57
2023/09/17 01:57:26;;;;;;;5.95;2.25;;;;;;;16.90;nan;99852.09;7391460;19;20014;-57
2023/09/17 01:59:52;;;;;;;4.72;2.25;;;;;;;16.66;nan;99858.34;7390883;19;20015;-57
2023/09/17 02:02:19;;;;;;;7.20;1.38;;;;;;;16.57;nan;99850.19;7394025;19;20014;-57
2023/09/17 02:04:46;;;;;;;3.30;1.10;;;;;;;16.93;nan;99854.63;7392550;19;20010;-57
2023/09/17 02:07:12;;;;;;;2.33;1.50;;;;;;;18.68;nan;99840.84;7393443;19;20010;-57
2023/09/17 02:09:38;;;;;;;4.90;2.20;;;;;;;17.47;nan;99835.09;7393828;19;20007;-57
2023/09/17 02:12:04;;;;;;;15.90;2.22;;;;;;;18.94;nan;99838.22;7392380;19;20015;-57
2023/09/17 02:14:30;;;;;;;7.28;2.55;;;;;;;17.31;nan;99838.78;7391771;19;20053;-57
2023/09/17 02:16:56;;;;;;;9.65;2.10;;;;;;;17.88;nan;99837.84;7395144;19;20018;-57
2023/09/17 02:19:25;;;;;;;7.60;1.70;;;;;;;16.73;nan;99846.53;7400561;19;20010;-57
2023/09/17 02:21:52;;;;;;;5.85;1.90;;;;;;;16.45;nan;99843.06;7401053;19;20078;-57
2023/09/17 02:24:19;;;;;;;19.20;2.90;;;;;;;16.61;nan;99839.44;7398740;19;20042;-57
2023/09/17 02:26:47;;;;;;;5.82;2.75;;;;;;;16.43;nan;99843.56;7402342;19;20022;-57
2023/09/17 02:29:13;;;;;;;4.85;2.10;;;;;;;16.84;nan;99834.47;7399662;19;20011;-56
2023/09/17 02:31:39;;;;;;;2.67;1.58;;;;;;;16.48;nan;99839.97;7397697;19;20011;-56
2023/09/17 02:34:05;;;;;;;11.27;3.17;;;;;;;16.50;nan;99834.63;7398740;19;20019;-57
2023/09/17 02:36:34;;;;;;;7.63;2.63;;;;;;;16.95;nan;99834.41;7403187;19;20109;-57
2023/09/17 02:39:00;;;;;;;6.25;2.65;;;;;;;16.52;nan;99834.84;7395805;19;20030;-57
2023/09/17 02:41:26;;;;;;;3.97;2.55;;;;;;;17.05;nan;99830.00;7399714;19;20027;-57
2023/09/17 02:43:52;;;;;;;5.57;2.47;;;;;;;17.88;nan;99824.53;7399874;19;20019;-57
2023/09/17 02:46:18;;;;;;;5.25;3.33;;;;;;;17.64;nan;99813.22;7401945;19;20013;-57
2023/09/17 02:48:47;;;;;;;4.40;2.78;;;;;;;17.50;nan;99817.16;7401442;19;20014;-57
2023/09/17 02:51:13;;;;;;;4.68;2.58;;;;;;;22.65;nan;99798.47;7399344;19;20015;-57
2023/09/17 02:53:39;;;;;;;3.40;1.88;;;;;;;29.00;nan;99794.88;7397377;19;20026;-57
2023/09/17 02:56:05;;;;;;;6.43;2.03;;;;;;;18.83;nan;99810.13;7401245;19;20035;-57
2023/09/17 02:58:32;;;;;;;6.15;2.58;;;;;;;20.24;nan;99797.56;7397632;19;20357;-57
2023/09/17 03:00:58;;;;;;;4.95;2.08;;;;;;;17.61;nan;99788.91;7398334;19;20010;-57
2023/09/17 03:03:24;;;;;;;6.72;1.92;;;;;;;18.30;nan;99791.31;7402475;19;20036;-57
2023/09/17 03:05:50;;;;;;;11.40;3.67;;;;;;;17.38;nan;99796.00;7401813;19;20074;-57
2023/09/17 03:08:16;;;;;;;5.20;2.90;;;;;;;18.45;nan;99794.47;7397957;19;20039;-57
2023/09/17 03:10:57;;;;;;;5.20;2.13;;;;;;;17.78;nan;99783.16;7398615;19;20011;-57
2023/09/17 03:13:23;;;;;;;12.25;1.67;;;;;;;19.93;nan;99781.44;7397156;19;20360;-57
2023/09/17 03:15:56;;;;;;;2.15;1.30;;;;;;;19.47;nan;99780.69;7398810;19;20358;-57
2023/09/17 03:18:22;;;;;;;7.88;1.90;;;;;;;19.51;nan;99783.94;7395026;19;20010;-57
2023/09/17 03:20:49;;;;;;;5.13;2.58;;;;;;;19.25;nan;99778.19;7396787;19;20022;-57
2023/09/17 03:23:15;;;;;;;3.80;1.63;;;;;;;17.17;nan;99778.00;7397607;19;20464;-57
2023/09/17 03:25:41;;;;;;;9.95;2.55;;;;;;;16.79;nan;99781.81;7399566;19;20010;-56
2023/09/17 03:28:08;;;;;;;10.65;3.03;;;;;;;16.63;nan;99780.66;7395674;19;20035;-56
2023/09/17 03:30:34;;;;;;;9.25;2.42;;;;;;;16.57;nan;99789.09;7394006;19;20022;-56
2023/09/17 03:33:04;;;;;;;7.70;3.30;;;;;;;16.51;nan;99791.16;7398862;19;20011;-56
2023/09/17 03:35:34;;;;;;;12.48;4.20;;;;;;;16.50;nan;99784.00;7397255;19;20018;-57
2023/09/17 03:38:01;;;;;;;6.88;2.13;;;;;;;16.50;nan;99786.81;7394395;19;20031;-56
2023/09/17 03:40:28;;;;;;;3.38;1.48;;;;;;;16.47;nan;99779.41;7395549;19;20390;-57
2023/09/17 03:42:54;;;;;;;6.55;2.28;;;;;;;16.44;nan;99783.25;7395538;19;20021;-56
2023/09/17 03:45:20;;;;;;;5.60;2.03;;;;;;;16.42;nan;99774.56;7396307;19;20010;-56
2023/09/17 03:47:47;;;;;;;5.65;2.85;;;;;;;16.37;nan;99772.53;7396615;19;20014;-56
2023/09/17 03:50:15;;;;;;;6.68;2.28;;;;;;;16.85;nan;99762.88;7396206;19;20010;-56
2023/09/17 03:52:45;;;;;;;8.32;2.72;;;;;;;16.82;nan;99763.91;7397008;19;20007;-57
2023/09/17 03:55:13;;;;;;;8.23;2.70;;;;;;;16.48;nan;99764.06;7396485;19;20019;-57
2023/09/17 03:57:40;;;;;;;5.85;2.70;;;;;;;16.89;nan;99754.94;7394801;19;20374;-57
2023/09/17 04:00:07;;;;;;;4.30;1.95;;;;;;;18.37;nan;99751.22;7396083;19;20086;-57
2023/09/17 04:02:42;;;;;;;5.13;2.35;;;;;;;18.33;nan;99750.75;7397839;19;20010;-57
2023/09/17 04:05:14;;;;;;;11.07;2.33;;;;;;;18.82;nan;99747.28;7395755;19;20014;-57
2023/09/17 04:07:42;;;;;;;3.80;1.90;;;;;;;19.07;nan;99756.41;7396484;19;20014;-57
2023/09/17 04:10:10;;;;;;;5.35;3.35;;;;;;;17.84;nan;99755.69;7396833;19;20817;-56
2023/09/17 04:12:38;;;;;;;5.63;2.22;;;;;;;16.99;nan;99758.94;7396458;19;20006;-56
2023/09/17 04:15:10;;;;;;;5.05;2.72;;;;;;;16.63;nan;99760.97;7396156;19;20527;-57
2023/09/17 04:17:36;;;;;;;3.22;1.33;;;;;;;17.31;nan;99759.97;7395083;19;20463;-56
2023/09/17 04:20:10;;;;;;;21.88;2.22;;;;;;;17.47;nan;99766.75;7393208;19;20793;-57
2023/09/17 04:22:37;;;;;;;6.50;1.65;;;;;;;16.72;nan;99762.72;7393140;19;20015;-57
2023/09/17 04:25:08;;;;;;;6.57;1.58;;;;;;;16.54;nan;99773.28;7394206;19;20018;-57
2023/09/17 04:27:36;;;;;;;3.75;1.95;;;;;;;16.52;nan;99769.44;7393931;19;20081;-56
2023/09/17 04:30:05;;;;;;;3.17;2.13;;;;;;;16.51;nan;99763.06;7394775;19;20002;-56
2023/09/17 04:32:39;;;;;;;10.15;2.92;;;;;;;16.45;nan;99759.50;7395782;19;20027;-56
2023/09/17 04:35:08;;;;;;;3.15;1.83;;;;;;;16.42;nan;99765.38;7395481;19;20027;-57
2023/09/17 04:37:36;;;;;;;5.85;2.80;;;;;;;16.43;nan;99755.66;7392200;19;20018;-56
2023/09/17 04:40:08;;;;;;;8.30;2.05;;;;;;;16.43;nan;99750.81;7393061;19;20048;-57
2023/09/17 04:42:36;;;;;;;7.38;2.75;;;;;;;16.60;nan;99754.31;7394253;19;20353;-56
2023/09/17 04:45:04;;;;;;;4.57;1.83;;;;;;;18.23;nan;99735.50;7393069;19;20018;-57
2023/09/17 04:47:34;;;;;;;2.15;1.70;;;;;;;16.68;nan;99744.06;7394554;19;20039;-57
2023/09/17 04:50:02;;;;;;;5.03;2.83;;;;;;;16.47;nan;99753.34;7394837;19;20031;-57
2023/09/17 04:52:30;;;;;;;6.40;3.00;;;;;;;16.39;nan;99750.31;7393703;19;20469;-57
2023/09/17 04:54:56;;;;;;;5.70;2.45;;;;;;;16.33;nan;99751.63;7393615;19;20019;-57
2023/09/17 04:57:22;;;;;;;3.58;1.92;;;;;;;16.33;nan;99743.94;7398443;19;20007;-58
2023/09/17 04:59:49;;;;;;;3.95;2.33;;;;;;;16.29;nan;99751.88;7393008;19;20015;-57
2023/09/17 05:02:16;;;;;;;4.00;1.55;;;;;;;21.25;nan;99737.47;7394186;19;20021;-57
2023/09/17 05:04:44;;;;;;;4.38;1.20;;;;;;;16.84;nan;99739.63;7393421;19;20010;-57
2023/09/17 05:07:11;;;;;;;3.85;2.65;;;;;;;17.35;nan;99743.56;7397185;19;20035;-57
2023/09/17 05:09:37;;;;;;;6.55;2.40;;;;;;;16.36;nan;99754.16;7392396;19;20039;-57
2023/09/17 05:12:05;;;;;;;4.20;1.90;;;;;;;16.25;nan;99751.41;7392186;19;20022;-56
2023/09/17 05:14:32;;;;;;;6.22;2.40;;;;;;;16.22;nan;99758.03;7393459;19;20011;-57
2023/09/17 05:16:58;;;;;;;7.70;2.22;;;;;;;16.25;nan;99756.25;7395368;19;20063;-57
2023/09/17 05:19:24;;;;;;;5.47;2.78;;;;;;;16.47;nan;99750.53;7392683;19;20010;-57
2023/09/17 05:21:51;;;;;;;5.72;2.05;;;;;;;16.31;nan;99754.94;7395926;19;20030;-57
2023/09/17 05:24:17;;;;;;;2.45;1.50;;;;;;;16.28;nan;99747.56;7392408;19;20031;-57
2023/09/17 05:26:43;;;;;;;6.80;1.70;;;;;;;16.45;nan;99748.25;7394695;19;20011;-57
2023/09/17 05:29:15;;;;;;;7.97;2.72;;;;;;;16.37;nan;99747.25;7391956;19;20020;-58
2023/09/17 05:31:41;;;;;;;6.72;2.63;;;;;;;16.06;nan;99750.44;7395106;19;20026;-56
2023/09/17 05:34:08;;;;;;;3.70;2.15;;;;;;;15.89;nan;99758.16;7392101;19;20021;-57
2023/09/17 05:36:35;;;;;;;6.80;2.92;;;;;;;15.86;nan;99761.97;7394969;19;20015;-57
2023/09/17 05:39:02;;;;;;;5.70;2.50;;;;;;;18.45;nan;99752.19;7389750;19;20011;-57
2023/09/17 05:41:28;;;;;;;5.32;2.90;;;;;;;28.47;nan;99727.91;7395776;19;20033;-57
2023/09/17 05:43:55;;;;;;;9.60;2.97;;;;;;;38.13;nan;99710.50;7392263;19;20378;-57
2023/09/17 05:46:21;;;;;;;4.80;2.38;;;;;;;39.79;nan;99713.59;7394091;19;20014;-57
2023/09/17 05:48:48;;;;;;;14.88;2.47;;;;;;;40.46;nan;99711.06;7394172;19;20015;-57
2023/09/17 05:51:14;;;;;;;5.95;3.47;;;;;;;41.01;nan;99710.22;7394189;19;20014;-57
2023/09/17 05:53:40;;;;;;;3.58;1.85;;;;;;;41.52;nan;99709.88;7397036;19;20089;-57
2023/09/17 05:56:07;;;;;;;3.72;2.28;;;;;;;40.80;nan;99711.16;7399361;19;20022;-58
2023/09/17 05:58:34;;;;;;;4.70;2.33;;;;;;;43.01;nan;99699.38;7396676;19;20399;-58
2023/09/17 06:01:04;;;;;;;3.75;1.60;;;;;;;43.84;nan;99704.16;7400837;19;20007;-57
2023/09/17 06:03:30;;;;;;;3.65;1.98;;;;;;;43.66;nan;99692.94;7403244;19;20042;-57
2023/09/17 06:05:59;;;;;;;3.55;2.42;;;;;;;43.49;nan;99697.13;7400429;19;20015;-58
2023/09/17 06:08:28;;;;;;;6.15;2.33;;;;;;;23.49;nan;99720.66;7397260;19;20014;-58
2023/09/17 06:10:55;;;;;;;5.88;2.08;;;;;;;19.18;nan;99728.00;7398566;19;20076;-58
2023/09/17 06:13:23;;;;;;;4.13;1.30;;;;;;;17.87;nan;99727.19;7398386;19;20091;-58
2023/09/17 06:15:49;;;;;;;3.83;2.33;;;;;;;17.27;nan;99726.50;7401252;19;20014;-58
2023/09/17 06:18:17;;;;;;;5.45;2.80;;;;;;;16.96;nan;99729.03;7396481;19;20014;-57
2023/09/17 06:20:44;;;;;;;7.20;2.85;;;;;;;16.78;nan;99729.69;7399605;19;20022;-57
2023/09/17 06:23:10;;;;;;;5.25;2.65;;;;;;;17.26;nan;99738.28;7396282;19;20011;-58
2023/09/17 06:25:36;;;;;;;4.45;1.77;;;;;;;19.22;nan;99733.34;7401467;19;19999;-57
2023/09/17 06:28:03;;;;;;;2.58;1.30;;;;;;;16.89;nan;99735.22;7397988;19;20019;-58
2023/09/17 06:30:30;;;;;;;5.15;1.33;;;;;;;16.45;nan;99725.75;7399397;19;20017;-57
2023/09/17 06:32:56;;;;;;;4.70;2.42;;;;;;;16.85;nan;99723.50;7401011;19;20015;-58
2023/09/17 06:35:22;;;;;;;1.63;1.25;;;;;;;16.45;nan;99725.75;7398767;19;20014;-57
2023/09/17 06:37:49;;;;;;;4.63;1.55;;;;;;;16.28;nan;99722.25;7396437;19;20034;-58
2023/09/17 06:40:17;;;;;;;5.30;2.25;;;;;;;17.50;nan;99715.03;7398911;19;20018;-57
2023/09/17 06:42:46;;;;;;;2.72;1.83;;;;;;;17.82;nan;99708.28;7400304;19;20010;-57
2023/09/17 06:45:18;;;;;;;5.45;1.55;;;;;;;18.74;nan;99706.13;7401270;19;20092;-57
2023/09/17 06:47:45;;;;;;;5.95;1.30;;;;;;;19.04;nan;99706.66;7402350;19;20511;-58
2023/09/17 06:50:13;;;;;;;3.05;1.55;;;;;;;20.11;nan;99709.88;7397879;19;20025;-58
2023/09/17 06:52:40;;;;;;;2.92;1.08;;;;;;;20.92;nan;99702.94;7401697;19;20022;-58
2023/09/17 06:55:09;;;;;;;5.80;1.67;;;;;;;20.88;nan;99702.53;7398958;19;20026;-57
2023/09/17 06:57:35;;;;;;;8.70;2.53;;;;;;;20.94;nan;99700.31;7400482;19;20015;-57
2023/09/17 07:00:09;;;;;;;5.03;2.60;;;;;;;20.73;nan;99695.94;7399788;19;20031;-58
2023/09/17 07:02:37;;;;;;;4.60;1.58;;;;;;;19.67;nan;99695.31;7400578;19;20017;-58
2023/09/17 07:05:07;;;;;;;3.03;1.10;;;;;;;19.72;nan;99693.69;7400598;19;20021;-58
2023/09/17 07:07:33;;;;;;;2.60;1.33;;;;;;;19.19;nan;99695.63;7400754;19;20011;-58
2023/09/17 07:10:00;;;;;;;1.95;1.83;;;;;;;19.13;nan;99708.31;7400824;19;20379;-58
2023/09/17 07:12:26;;;;;;;11.50;1.55;;;;;;;19.03;nan;99699.50;7402627;19;20010;-58
2023/09/17 07:14:52;;;;;;;4.75;1.85;;;;;;;19.06;nan;99698.41;7401065;19;20015;-58
2023/09/17 07:17:18;;;;;;;5.10;1.65;;;;;;;21.21;nan;99694.56;7400575;19;20014;-58
2023/09/17 07:19:45;;;;;;;4.68;1.52;;;;;;;28.97;nan;99684.25;7401036;19;20408;-58
2023/09/17 07:22:11;;;;;;;4.60;1.48;;;;;;;41.06;nan;99653.34;7399283;19;20480;-58
2023/09/17 07:24:38;;;;;;;4.53;1.83;;;;;;;43.32;nan;99646.31;7398558;19;20014;-58
2023/09/17 07:27:07;;;;;;;6.38;2.80;;;;;;;43.96;nan;99649.25;7395993;19;20021;-58
2023/09/17 07:29:33;;;;;;;3.30;1.38;;;;;;;44.61;nan;99647.59;7396655;19;20329;-58
2023/09/17 07:31:59;;;;;;;2.85;1.67;;;;;;;44.97;nan;99647.09;7400578;19;20018;-57
2023/09/17 07:34:26;;;;;;;12.93;1.27;;;;;;;45.31;nan;99653.16;7396671;19;20018;-58
2023/09/17 07:36:53;;;;;;;4.55;1.55;;;;;;;45.42;nan;99642.91;7395833;19;20039;-58
2023/09/17 07:39:21;;;;;;;6.32;0.65;;;;;;;44.99;nan;99641.22;7394790;19;20022;-58
2023/09/17 07:41:48;;;;;;;7.10;1.10;;;;;;;44.03;nan;99636.13;7400083;19;20015;-56
2023/09/17 07:44:14;;;;;;;1.85;0.65;;;;;;;43.70;nan;99631.38;7395875;19;20015;-56
2023/09/17 07:46:40;;;;;;;3.00;1.23;;;;;;;44.13;nan;99630.31;7395991;19;20455;-56
2023/09/17 07:49:07;;;;;;;4.13;1.58;;;;;;;44.19;nan;99627.44;7398767;19;20037;-56
2023/09/17 07:52:06;;;;;;;4.57;1.83;;;;;;;44.32;nan;99637.81;7398602;19;20459;-56
2023/09/17 07:54:50;;;;;;;1.13;0.88;;;;;;;44.16;nan;99640.63;7395508;19;20440;-56
2023/09/17 07:57:16;;;;;;;1.60;1.05;;;;;;;44.21;nan;99641.38;7394974;19;20018;-56
2023/09/17 07:59:42;;;;;;;2.38;1.45;;;;;;;44.31;nan;99644.44;7395066;19;20026;-56
2023/09/17 08:02:09;;;;;;;2.95;0.95;;;;;;;44.52;nan;99645.31;7395325;19;20017;-56
2023/09/17 08:04:35;;;;;;;1.77;0.82;;;;;;;44.54;nan;99637.28;7396702;19;20010;-56
2023/09/17 08:07:02;;;;;;;1.40;0.52;;;;;;;44.64;nan;99654.25;7395729;19;20011;-56
2023/09/17 08:09:29;;;;;;;3.53;0.70;;;;;;;44.58;nan;99646.09;7396817;19;20031;-56
2023/09/17 08:11:55;;;;;;;4.03;0.95;;;;;;;44.48;nan;99645.31;7399315;19;20498;-56
2023/09/17 08:14:22;;;;;;;3.00;0.95;;;;;;;44.55;nan;99649.75;7394588;19;20022;-56
2023/09/17 08:16:49;;;;;;;1.70;0.85;;;;;;;44.65;nan;99641.00;7397268;19;20010;-56
2023/09/17 08:19:16;;;;;;;0.45;0.22;;;;;;;44.63;nan;99638.06;7395371;19;20013;-56
2023/09/17 08:21:43;;;;;;;4.03;1.98;;;;;;;44.56;nan;99630.66;7397614;19;20010;-56
2023/09/17 08:24:10;;;;;;;1.90;1.05;;;;;;;44.26;nan;99631.91;7398855;19;20010;-56
2023/09/17 08:26:36;;;;;;;3.17;1.15;;;;;;;44.72;nan;99625.63;7394538;19;20006;-56
2023/09/17 08:29:05;;;;;;;2.20;0.57;;;;;;;44.69;nan;99623.41;7397822;19;20042;-56
2023/09/17 08:31:32;;;;;;;3.03;1.33;;;;;;;45.06;nan;99613.31;7396695;19;20369;-57
2023/09/17 08:34:02;;;;;;;0.70;0.35;;;;;;;45.33;nan;99623.75;7399758;19;20480;-57
2023/09/17 08:36:29;;;;;;;1.48;0.88;;;;;;;45.62;nan;99630.47;7394894;19;20010;-57
2023/09/17 08:38:55;;;;;;;2.33;1.45;;;;;;;44.74;nan;99630.78;7394958;19;20039;-57
2023/09/17 08:41:24;;;;;;;5.93;1.65;;;;;;;44.58;nan;99630.66;7396780;19;20011;-58
2023/09/17 08:43:55;;;;;;;0.98;0.43;;;;;;;44.92;nan;99627.97;7394294;19;20010;-58
2023/09/17 08:46:21;;;;;;;5.88;0.95;;;;;;;45.05;nan;99617.75;7395189;19;20070;-58
2023/09/17 08:48:48;;;;;;;0.73;0.47;;;;;;;44.71;nan;99626.34;7397394;19;20417;-58
2023/09/17 08:51:18;;;;;;;1.55;0.57;;;;;;;45.52;nan;99615.72;7398148;19;20010;-58
2023/09/17 08:54:02;;;;;;;2.42;0.95;;;;;;;44.67;nan;99608.69;7393778;19;20036;-58
2023/09/17 08:56:31;;;;;;;1.38;0.75;;;;;;;44.66;nan;99610.16;7395024;19;20010;-58
2023/09/17 08:59:03;;;;;;;2.85;1.02;;;;;;;44.68;nan;99610.19;7393372;19;20478;-58
2023/09/17 09:01:32;;;;;;;3.50;1.15;;;;;;;45.36;nan;99598.75;7398133;19;20021;-58
2023/09/17 09:04:00;;;;;;;3.75;1.50;;;;;;;45.51;nan;99591.44;7396925;19;20349;-58
2023/09/17 09:06:29;;;;;;;2.60;1.67;;;;;;;44.51;nan;99588.03;7393941;19;20330;-59
2023/09/17 09:08:58;;;;;;;1.98;1.48;;;;;;;45.34;nan;99577.41;7392428;19;20397;-58
2023/09/17 09:11:25;;;;;;;3.45;0.57;;;;;;;45.40;nan;99586.28;7395925;19;20366;-59
2023/09/17 09:13:53;;;;;;;4.15;1.85;;;;;;;44.88;nan;99577.97;7392596;19;20038;-56
2023/09/17 09:16:21;;;;;;;1.17;0.38;;;;;;;44.02;nan;99578.81;7394324;19;20010;-57
2023/09/17 09:18:47;;;;;;;0.65;0.65;;;;;;;44.20;nan;99569.44;7391575;19;20017;-57
2023/09/17 09:21:14;;;;;;;1.38;0.47;;;;;;;43.30;nan;99575.91;7396620;19;20074;-56
2023/09/17 09:23:40;;;;;;;1.35;0.80;;;;;;;41.58;nan;99571.06;7394559;19;20015;-57
2023/09/17 09:26:07;;;;;;;2.60;0.60;;;;;;;34.74;nan;99573.94;7397781;19;20023;-57
2023/09/17 09:28:34;;;;;;;0.85;0.75;;;;;;;35.37;nan;99563.06;7391787;19;20039;-56
2023/09/17 09:31:00;;;;;;;2.00;1.00;;;;;;;36.31;nan;99559.78;7393992;19;20014;-58
2023/09/17 09:33:27;;;;;;;4.10;0.65;;;;;;;36.29;nan;99568.41;7395894;19;20035;-57
2023/09/17 09:35:54;;;;;;;2.42;0.85;;;;;;;38.25;nan;99564.72;7395730;19;20010;-57
2023/09/17 09:38:21;;;;;;;3.05;0.63;;;;;;;37.49;nan;99568.66;7394414;19;20015;-57
2023/09/17 09:40:47;;;;;;;0.82;0.30;;;;;;;37.48;nan;99556.28;7394909;19;20444;-57
2023/09/17 09:43:30;;;;;;;2.03;0.82;;;;;;;36.14;nan;99560.56;7391874;19;20332;-57
2023/09/17 09:46:07;;;;;;;9.05;0.68;;;;;;;36.46;nan;99558.97;7394139;19;20023;-57
2023/09/17 09:48:37;;;;;;;1.52;0.43;;;;;;;36.20;nan;99561.53;7394466;19;20010;-57
2023/09/17 09:51:03;;;;;;;1.48;0.60;;;;;;;35.78;nan;99551.81;7394345;19;20073;-57
2023/09/17 09:53:30;;;;;;;3.00;0.85;;;;;;;36.09;nan;99550.19;7391382;19;20011;-57
2023/09/17 09:55:56;;;;;;;2.20;0.50;;;;;;;37.81;nan;99540.72;7392717;19;20086;-57
2023/09/17 09:58:24;;;;;;;1.15;0.88;;;;;;;36.81;nan;99526.94;7393537;19;20010;-57
2023/09/17 10:00:50;;;;;;;1.20;0.43;;;;;;;35.81;nan;99529.47;7394671;19;20018;-57
2023/09/17 10:03:20;;;;;;;2.10;1.20;;;;;;;35.51;nan;99514.47;7394957;19;20401;-57
2023/09/17 10:05:47;;;;;;;10.18;0.93;;;;;;;37.08;nan;99506.16;7391061;19;20015;-57
2023/09/17 10:08:17;;;;;;;1.48;0.50;;;;;;;37.79;nan;99497.72;7391628;19;20102;-55
2023/09/17 10:10:43;;;;;;;3.50;1.45;;;;;;;35.61;nan;99494.59;7395627;19;20471;-55
2023/09/17 10:13:10;;;;;;;2.90;0.98;;;;;;;35.83;nan;99486.06;7393203;19;20368;-55
2023/09/17 10:15:39;;;;;;;2.50;0.88;;;;;;;35.42;nan;99491.56;7391247;19;20015;-55
2023/09/17 10:18:14;;;;;;;3.83;1.52;;;;;;;35.14;nan;99501.94;7391955;19;20503;-55
2023/09/17 10:20:42;;;;;;;0.85;0.22;;;;;;;35.42;nan;99489.41;7394106;19;20104;-55
2023/09/17 10:23:10;;;;;;;1.52;0.63;;;;;;;35.85;nan;99500.63;7397010;19;20018;-56
2023/09/17 10:25:39;;;;;;;2.85;0.70;;;;;;;37.09;nan;99498.97;7392755;19;20383;-55
2023/09/17 10:28:07;;;;;;;1.42;0.55;;;;;;;36.49;nan;99502.50;7392396;19;20021;-56
2023/09/17 10:30:34;;;;;;;0.40;0.38;;;;;;;36.22;nan;99508.66;7393932;19;20015;-55
2023/09/17 10:33:03;;;;;;;14.50;0.95;;;;;;;36.56;nan;99492.59;7393202;19;20025;-56
2023/09/17 10:35:29;;;;;;;0.80;0.70;;;;;;;35.88;nan;99481.19;7391584;19;20435;-56
2023/09/17 10:37:59;;;;;;;3.28;0.70;;;;;;;36.72;nan;99483.75;7389809;19;20470;-56
2023/09/17 10:40:26;;;;;;;1.05;0.82;;;;;;;36.52;nan;99472.13;7399208;19;20347;-56
2023/09/17 10:42:53;;;;;;;1.85;0.90;;;;;;;37.95;nan;99480.84;7397443;19;20010;-56
2023/09/17 10:45:21;;;;;;;1.17;0.30;;;;;;;36.72;nan;99472.91;7401592;19;20011;-56
2023/09/17 10:47:50;;;;;;;0.30;0.25;;;;;;;36.32;nan;99460.47;7397313;19;20010;-56
2023/09/17 10:50:18;;;;;;;0.90;0.60;;;;;;;36.80;nan;99457.91;7399970;19;20021;-56
2023/09/17 10:52:45;;;;;;;1.95;0.32;;;;;;;37.22;nan;99451.50;7397254;19;20074;-56
2023/09/17 10:55:11;;;;;;;0.45;0.35;;;;;;;37.41;nan;99440.50;7396819;19;20347;-56
2023/09/17 10:57:44;;;;;;;1.58;0.77;;;;;;;37.32;nan;99439.44;7402079;19;20015;-57
2023/09/17 11:00:17;;;;;;;1.20;0.40;;;;;;;37.00;nan;99439.09;7398243;19;20014;-56
2023/09/17 11:02:50;;;;;;;2.60;0.82;;;;;;;36.69;nan;99439.38;7398532;19;20025;-56
2023/09/17 11:05:22;;;;;;;2.22;0.63;;;;;;;36.61;nan;99427.50;7396813;19;20014;-56
2023/09/17 11:07:51;;;;;;;3.92;0.30;;;;;;;37.04;nan;99421.81;7401523;19;20010;-56
2023/09/17 11:10:17;;;;;;;6.28;0.55;;;;;;;36.42;nan;99416.63;7397913;19;20010;-59
2023/09/17 11:12:43;;;;;;;3.85;0.57;;;;;;;38.92;nan;99413.88;7395057;19;20043;-59
2023/09/17 11:15:10;;;;;;;1.10;0.73;;;;;;;39.60;nan;99408.34;7397093;19;20015;-59
2023/09/17 11:17:37;;;;;;;3.15;0.43;;;;;;;39.53;nan;99407.44;7396531;19;20026;-59
2023/09/17 11:20:13;;;;;;;1.25;0.65;;;;;;;40.18;nan;99418.44;7400824;19;20007;-59
2023/09/17 11:22:44;;;;;;;2.58;0.50;;;;;;;39.78;nan;99418.28;7396746;19;20018;-58
2023/09/17 11:25:10;;;;;;;1.40;0.50;;;;;;;38.59;nan;99417.31;7395416;19;20011;-58
2023/09/17 11:27:46;;;;;;;1.38;0.80;;;;;;;39.92;nan;99409.84;7395763;19;20014;-57
2023/09/17 11:30:17;;;;;;;2.33;0.82;;;;;;;39.58;nan;99417.78;7397521;19;20024;-59
2023/09/17 11:32:53;;;;;;;;;;;;;;;39.21;nan;99413.22;7396804;19;20021;-82
2023/09/17 11:35:24;;;;;;;2.58;0.77;;;;;;;39.54;nan;99411.84;7392052;19;19927;-82
2023/09/17 11:37:53;;;;;;;1.55;0.47;;;;;;;40.24;nan;99412.03;7390798;19;20015;-83
2023/09/17 11:40:21;;;;;;;2.28;0.55;;;;;;;40.00;nan;99404.22;7392266;19;20025;-83
2023/09/17 11:42:47;;;;;;;1.55;0.75;;;;;;;40.02;nan;99407.19;7392393;19;20026;-82
2023/09/17 11:45:14;;;;;;;2.15;0.70;;;;;;;42.20;nan;99393.56;7390400;19;20122;-82
2023/09/17 11:47:40;;;;;;;1.42;0.75;;;;;;;40.72;nan;99386.72;7391626;19;20019;-83
2023/09/17 11:50:09;;;;;;;4.28;1.15;;;;;;;40.23;nan;99385.00;7391924;19;20019;-82
2023/09/17 11:52:35;;;;;;;0.88;0.57;;;;;;;40.35;nan;99378.69;7394561;19;20025;-83